sensor_id;sensor_type;location;lat;lon;timestamp;P1;durP1;ratioP1;P2;durP2;ratioP2
55993;SDS011;67425;52.126;20.638;2024-03-22T00:01:45;75.88;;;32.47;;
55993;SDS011;67425;52.126;20.638;2024-03-22T00:04:11;79.15;;;34.58;;
55993;SDS011;67425;52.126;20.638;2024-03-22T00:06:38;73.93;;;32.22;;
55993;SDS011;67425;52.126;20.638;2024-03-22T00:09:04;77.90;;;32.90;;
55993;SDS011;67425;52.126;20.638;2024-03-22T00:11:30;68.32;;;31.92;;
55993;SDS011;67425;52.126;20.638;2024-03-22T00:13:55;72.60;;;32.38;;
55993;SDS011;67425;52.126;20.638;2024-03-22T00:16:21;79.78;;;34.50;;
55993;SDS011;67425;52.126;20.638;2024-03-22T00:18:46;71.40;;;32.65;;
55993;SDS011;67425;52.126;20.638;2024-03-22T00:21:11;73.85;;;32.67;;
55993;SDS011;67425;52.126;20.638;2024-03-22T00:23:37;73.85;;;32.42;;
55993;SDS011;67425;52.126;20.638;2024-03-22T00:26:02;78.65;;;34.92;;
55993;SDS011;67425;52.126;20.638;2024-03-22T00:28:28;82.90;;;35.60;;
55993;SDS011;67425;52.126;20.638;2024-03-22T00:30:53;84.55;;;36.13;;
55993;SDS011;67425;52.126;20.638;2024-03-22T00:33:18;75.10;;;33.88;;
55993;SDS011;67425;52.126;20.638;2024-03-22T00:35:44;89.30;;;35.55;;
55993;SDS011;67425;52.126;20.638;2024-03-22T00:38:09;89.43;;;37.42;;
55993;SDS011;67425;52.126;20.638;2024-03-22T00:40:35;89.07;;;37.50;;
55993;SDS011;67425;52.126;20.638;2024-03-22T00:43:00;90.05;;;37.53;;
55993;SDS011;67425;52.126;20.638;2024-03-22T00:45:25;81.45;;;34.38;;
55993;SDS011;67425;52.126;20.638;2024-03-22T00:47:51;88.45;;;36.80;;
55993;SDS011;67425;52.126;20.638;2024-03-22T00:50:16;93.55;;;36.53;;
55993;SDS011;67425;52.126;20.638;2024-03-22T00:52:42;95.45;;;36.22;;
55993;SDS011;67425;52.126;20.638;2024-03-22T00:55:07;80.18;;;35.03;;
55993;SDS011;67425;52.126;20.638;2024-03-22T00:57:33;89.00;;;37.00;;
55993;SDS011;67425;52.126;20.638;2024-03-22T00:59:58;90.75;;;36.92;;
55993;SDS011;67425;52.126;20.638;2024-03-22T01:02:23;106.80;;;39.70;;
55993;SDS011;67425;52.126;20.638;2024-03-22T01:04:49;98.00;;;41.05;;
55993;SDS011;67425;52.126;20.638;2024-03-22T01:07:14;98.30;;;44.22;;
55993;SDS011;67425;52.126;20.638;2024-03-22T01:09:39;96.22;;;41.50;;
55993;SDS011;67425;52.126;20.638;2024-03-22T01:12:05;103.60;;;41.13;;
55993;SDS011;67425;52.126;20.638;2024-03-22T01:14:31;91.35;;;39.15;;
55993;SDS011;67425;52.126;20.638;2024-03-22T01:16:56;89.65;;;38.88;;
55993;SDS011;67425;52.126;20.638;2024-03-22T01:19:22;89.75;;;40.30;;
55993;SDS011;67425;52.126;20.638;2024-03-22T01:21:48;97.35;;;38.78;;
55993;SDS011;67425;52.126;20.638;2024-03-22T01:24:14;107.03;;;41.90;;
55993;SDS011;67425;52.126;20.638;2024-03-22T01:26:39;99.65;;;42.10;;
55993;SDS011;67425;52.126;20.638;2024-03-22T01:29:04;96.97;;;41.30;;
55993;SDS011;67425;52.126;20.638;2024-03-22T01:31:30;89.32;;;40.60;;
55993;SDS011;67425;52.126;20.638;2024-03-22T01:33:55;99.13;;;41.80;;
55993;SDS011;67425;52.126;20.638;2024-03-22T01:36:20;92.47;;;38.47;;
55993;SDS011;67425;52.126;20.638;2024-03-22T01:38:46;94.40;;;38.45;;
55993;SDS011;67425;52.126;20.638;2024-03-22T01:41:11;89.70;;;36.00;;
55993;SDS011;67425;52.126;20.638;2024-03-22T01:43:37;94.13;;;38.35;;
55993;SDS011;67425;52.126;20.638;2024-03-22T01:46:02;92.88;;;41.40;;
55993;SDS011;67425;52.126;20.638;2024-03-22T01:48:28;101.88;;;42.38;;
55993;SDS011;67425;52.126;20.638;2024-03-22T01:50:53;108.97;;;43.28;;
55993;SDS011;67425;52.126;20.638;2024-03-22T01:53:19;101.50;;;43.10;;
55993;SDS011;67425;52.126;20.638;2024-03-22T01:55:45;109.07;;;46.00;;
55993;SDS011;67425;52.126;20.638;2024-03-22T01:58:10;101.97;;;40.65;;
55993;SDS011;67425;52.126;20.638;2024-03-22T02:00:37;93.75;;;40.53;;
55993;SDS011;67425;52.126;20.638;2024-03-22T02:03:02;97.70;;;42.03;;
55993;SDS011;67425;52.126;20.638;2024-03-22T02:05:28;101.50;;;39.33;;
55993;SDS011;67425;52.126;20.638;2024-03-22T02:07:54;96.68;;;39.97;;
55993;SDS011;67425;52.126;20.638;2024-03-22T02:10:19;105.57;;;41.35;;
55993;SDS011;67425;52.126;20.638;2024-03-22T02:12:45;99.25;;;41.38;;
55993;SDS011;67425;52.126;20.638;2024-03-22T02:15:11;102.25;;;43.15;;
55993;SDS011;67425;52.126;20.638;2024-03-22T02:17:36;101.97;;;44.45;;
55993;SDS011;67425;52.126;20.638;2024-03-22T02:20:02;97.78;;;43.53;;
55993;SDS011;67425;52.126;20.638;2024-03-22T02:22:29;111.55;;;44.75;;
55993;SDS011;67425;52.126;20.638;2024-03-22T02:24:54;101.03;;;42.25;;
55993;SDS011;67425;52.126;20.638;2024-03-22T02:27:20;89.80;;;39.63;;
55993;SDS011;67425;52.126;20.638;2024-03-22T02:29:45;95.47;;;39.50;;
55993;SDS011;67425;52.126;20.638;2024-03-22T02:32:11;92.57;;;38.85;;
55993;SDS011;67425;52.126;20.638;2024-03-22T02:34:36;94.75;;;38.80;;
55993;SDS011;67425;52.126;20.638;2024-03-22T02:37:02;86.57;;;37.72;;
55993;SDS011;67425;52.126;20.638;2024-03-22T02:39:27;93.25;;;41.30;;
55993;SDS011;67425;52.126;20.638;2024-03-22T02:41:53;94.93;;;41.80;;
55993;SDS011;67425;52.126;20.638;2024-03-22T02:44:19;99.00;;;40.17;;
55993;SDS011;67425;52.126;20.638;2024-03-22T02:46:44;87.05;;;37.80;;
55993;SDS011;67425;52.126;20.638;2024-03-22T02:49:10;85.60;;;38.60;;
55993;SDS011;67425;52.126;20.638;2024-03-22T02:51:35;73.72;;;35.90;;
55993;SDS011;67425;52.126;20.638;2024-03-22T02:54:01;87.07;;;36.10;;
55993;SDS011;67425;52.126;20.638;2024-03-22T02:56:27;93.13;;;35.53;;
55993;SDS011;67425;52.126;20.638;2024-03-22T02:58:53;82.93;;;34.70;;
55993;SDS011;67425;52.126;20.638;2024-03-22T03:01:18;73.70;;;33.83;;
55993;SDS011;67425;52.126;20.638;2024-03-22T03:03:44;85.57;;;36.22;;
55993;SDS011;67425;52.126;20.638;2024-03-22T03:06:09;66.68;;;32.60;;
55993;SDS011;67425;52.126;20.638;2024-03-22T03:08:35;87.25;;;39.25;;
55993;SDS011;67425;52.126;20.638;2024-03-22T03:11:00;81.97;;;33.55;;
55993;SDS011;67425;52.126;20.638;2024-03-22T03:13:26;87.45;;;34.92;;
55993;SDS011;67425;52.126;20.638;2024-03-22T03:15:51;67.85;;;31.98;;
55993;SDS011;67425;52.126;20.638;2024-03-22T03:18:16;68.95;;;29.73;;
55993;SDS011;67425;52.126;20.638;2024-03-22T03:20:42;66.95;;;31.20;;
55993;SDS011;67425;52.126;20.638;2024-03-22T03:23:08;61.17;;;28.92;;
55993;SDS011;67425;52.126;20.638;2024-03-22T03:25:33;75.78;;;29.60;;
55993;SDS011;67425;52.126;20.638;2024-03-22T03:27:59;54.20;;;27.92;;
55993;SDS011;67425;52.126;20.638;2024-03-22T03:30:24;61.88;;;27.35;;
55993;SDS011;67425;52.126;20.638;2024-03-22T03:32:49;67.75;;;29.52;;
55993;SDS011;67425;52.126;20.638;2024-03-22T03:35:15;72.15;;;31.65;;
55993;SDS011;67425;52.126;20.638;2024-03-22T03:37:40;82.38;;;30.65;;
55993;SDS011;67425;52.126;20.638;2024-03-22T03:40:06;79.97;;;31.77;;
55993;SDS011;67425;52.126;20.638;2024-03-22T03:42:32;75.78;;;28.85;;
55993;SDS011;67425;52.126;20.638;2024-03-22T03:44:57;54.35;;;21.05;;
55993;SDS011;67425;52.126;20.638;2024-03-22T03:47:23;68.25;;;29.90;;
55993;SDS011;67425;52.126;20.638;2024-03-22T03:49:48;83.28;;;29.55;;
55993;SDS011;67425;52.126;20.638;2024-03-22T03:52:14;47.90;;;23.25;;
55993;SDS011;67425;52.126;20.638;2024-03-22T03:54:39;73.82;;;31.77;;
55993;SDS011;67425;52.126;20.638;2024-03-22T03:57:05;71.78;;;29.45;;
55993;SDS011;67425;52.126;20.638;2024-03-22T03:59:31;77.13;;;31.55;;
55993;SDS011;67425;52.126;20.638;2024-03-22T04:01:56;78.53;;;29.63;;
55993;SDS011;67425;52.126;20.638;2024-03-22T04:04:22;47.47;;;20.92;;
55993;SDS011;67425;52.126;20.638;2024-03-22T04:06:47;56.00;;;24.23;;
55993;SDS011;67425;52.126;20.638;2024-03-22T04:09:13;69.00;;;28.02;;
55993;SDS011;67425;52.126;20.638;2024-03-22T04:11:38;68.30;;;25.55;;
55993;SDS011;67425;52.126;20.638;2024-03-22T04:14:06;71.55;;;30.08;;
55993;SDS011;67425;52.126;20.638;2024-03-22T04:16:32;63.08;;;27.05;;
55993;SDS011;67425;52.126;20.638;2024-03-22T04:18:57;46.92;;;21.00;;
55993;SDS011;67425;52.126;20.638;2024-03-22T04:21:22;91.65;;;30.40;;
55993;SDS011;67425;52.126;20.638;2024-03-22T04:23:48;79.47;;;30.83;;
55993;SDS011;67425;52.126;20.638;2024-03-22T04:26:14;81.63;;;29.90;;
55993;SDS011;67425;52.126;20.638;2024-03-22T04:28:40;70.97;;;26.88;;
55993;SDS011;67425;52.126;20.638;2024-03-22T04:31:06;71.13;;;28.58;;
55993;SDS011;67425;52.126;20.638;2024-03-22T04:33:33;42.38;;;18.35;;
55993;SDS011;67425;52.126;20.638;2024-03-22T04:35:59;76.43;;;30.00;;
55993;SDS011;67425;52.126;20.638;2024-03-22T04:38:26;74.43;;;26.75;;
55993;SDS011;67425;52.126;20.638;2024-03-22T04:40:52;71.20;;;28.63;;
55993;SDS011;67425;52.126;20.638;2024-03-22T04:43:18;75.78;;;27.75;;
55993;SDS011;67425;52.126;20.638;2024-03-22T04:45:44;79.10;;;30.00;;
55993;SDS011;67425;52.126;20.638;2024-03-22T04:48:12;89.80;;;30.77;;
55993;SDS011;67425;52.126;20.638;2024-03-22T04:50:39;85.00;;;30.92;;
55993;SDS011;67425;52.126;20.638;2024-03-22T04:53:04;93.88;;;34.10;;
55993;SDS011;67425;52.126;20.638;2024-03-22T04:55:32;85.38;;;32.97;;
55993;SDS011;67425;52.126;20.638;2024-03-22T04:57:58;92.22;;;32.72;;
55993;SDS011;67425;52.126;20.638;2024-03-22T05:00:23;83.68;;;29.63;;
55993;SDS011;67425;52.126;20.638;2024-03-22T05:02:50;87.32;;;32.95;;
55993;SDS011;67425;52.126;20.638;2024-03-22T05:05:18;91.53;;;32.92;;
55993;SDS011;67425;52.126;20.638;2024-03-22T05:07:44;87.82;;;33.47;;
55993;SDS011;67425;52.126;20.638;2024-03-22T05:10:10;97.38;;;37.33;;
55993;SDS011;67425;52.126;20.638;2024-03-22T05:12:37;91.70;;;33.25;;
55993;SDS011;67425;52.126;20.638;2024-03-22T05:15:03;85.40;;;31.75;;
55993;SDS011;67425;52.126;20.638;2024-03-22T05:17:29;85.22;;;34.17;;
55993;SDS011;67425;52.126;20.638;2024-03-22T05:19:57;79.50;;;30.63;;
55993;SDS011;67425;52.126;20.638;2024-03-22T05:22:26;80.72;;;30.08;;
55993;SDS011;67425;52.126;20.638;2024-03-22T05:24:52;81.28;;;29.65;;
55993;SDS011;67425;52.126;20.638;2024-03-22T05:27:18;74.50;;;29.85;;
55993;SDS011;67425;52.126;20.638;2024-03-22T05:29:43;73.28;;;29.05;;
55993;SDS011;67425;52.126;20.638;2024-03-22T05:32:09;77.75;;;28.05;;
55993;SDS011;67425;52.126;20.638;2024-03-22T05:34:35;67.38;;;28.48;;
55993;SDS011;67425;52.126;20.638;2024-03-22T05:37:01;67.78;;;28.05;;
55993;SDS011;67425;52.126;20.638;2024-03-22T05:39:27;79.03;;;29.23;;
55993;SDS011;67425;52.126;20.638;2024-03-22T05:41:53;76.28;;;28.80;;
55993;SDS011;67425;52.126;20.638;2024-03-22T05:44:19;69.10;;;27.25;;
55993;SDS011;67425;52.126;20.638;2024-03-22T05:46:45;69.68;;;26.20;;
55993;SDS011;67425;52.126;20.638;2024-03-22T05:49:10;62.58;;;26.60;;
55993;SDS011;67425;52.126;20.638;2024-03-22T05:51:35;66.15;;;27.92;;
55993;SDS011;67425;52.126;20.638;2024-03-22T05:54:01;65.10;;;27.05;;
55993;SDS011;67425;52.126;20.638;2024-03-22T05:56:27;68.53;;;29.15;;
55993;SDS011;67425;52.126;20.638;2024-03-22T05:58:53;69.80;;;26.67;;
55993;SDS011;67425;52.126;20.638;2024-03-22T06:01:19;62.65;;;26.70;;
55993;SDS011;67425;52.126;20.638;2024-03-22T06:03:44;61.90;;;25.60;;
55993;SDS011;67425;52.126;20.638;2024-03-22T06:06:09;52.90;;;22.90;;
55993;SDS011;67425;52.126;20.638;2024-03-22T06:08:35;53.72;;;22.88;;
55993;SDS011;67425;52.126;20.638;2024-03-22T06:11:04;55.58;;;22.35;;
55993;SDS011;67425;52.126;20.638;2024-03-22T06:13:29;50.28;;;21.48;;
55993;SDS011;67425;52.126;20.638;2024-03-22T06:15:57;47.30;;;19.67;;
55993;SDS011;67425;52.126;20.638;2024-03-22T06:18:22;51.50;;;22.27;;
55993;SDS011;67425;52.126;20.638;2024-03-22T06:20:48;59.05;;;22.55;;
55993;SDS011;67425;52.126;20.638;2024-03-22T06:23:13;54.60;;;23.25;;
55993;SDS011;67425;52.126;20.638;2024-03-22T06:25:38;47.45;;;19.23;;
55993;SDS011;67425;52.126;20.638;2024-03-22T06:28:04;54.13;;;22.80;;
55993;SDS011;67425;52.126;20.638;2024-03-22T06:30:29;55.70;;;22.45;;
55993;SDS011;67425;52.126;20.638;2024-03-22T06:32:55;59.03;;;24.48;;
55993;SDS011;67425;52.126;20.638;2024-03-22T06:35:20;49.13;;;20.50;;
55993;SDS011;67425;52.126;20.638;2024-03-22T06:37:46;56.65;;;20.75;;
55993;SDS011;67425;52.126;20.638;2024-03-22T06:40:13;45.70;;;19.08;;
55993;SDS011;67425;52.126;20.638;2024-03-22T06:42:39;52.83;;;20.92;;
55993;SDS011;67425;52.126;20.638;2024-03-22T06:45:05;49.70;;;22.35;;
55993;SDS011;67425;52.126;20.638;2024-03-22T06:47:30;59.88;;;22.75;;
55993;SDS011;67425;52.126;20.638;2024-03-22T06:49:56;54.42;;;22.98;;
55993;SDS011;67425;52.126;20.638;2024-03-22T06:52:22;59.50;;;23.83;;
55993;SDS011;67425;52.126;20.638;2024-03-22T06:54:48;56.75;;;25.60;;
55993;SDS011;67425;52.126;20.638;2024-03-22T06:57:13;63.97;;;28.50;;
55993;SDS011;67425;52.126;20.638;2024-03-22T06:59:39;87.25;;;31.23;;
55993;SDS011;67425;52.126;20.638;2024-03-22T07:02:04;77.90;;;30.27;;
55993;SDS011;67425;52.126;20.638;2024-03-22T07:04:30;79.00;;;29.27;;
55993;SDS011;67425;52.126;20.638;2024-03-22T07:06:55;73.82;;;31.80;;
55993;SDS011;67425;52.126;20.638;2024-03-22T07:09:21;69.18;;;28.65;;
55993;SDS011;67425;52.126;20.638;2024-03-22T07:11:46;68.68;;;27.60;;
55993;SDS011;67425;52.126;20.638;2024-03-22T07:14:12;71.30;;;27.60;;
55993;SDS011;67425;52.126;20.638;2024-03-22T07:16:37;63.13;;;27.13;;
55993;SDS011;67425;52.126;20.638;2024-03-22T07:19:03;70.18;;;28.63;;
55993;SDS011;67425;52.126;20.638;2024-03-22T07:21:29;67.75;;;28.50;;
55993;SDS011;67425;52.126;20.638;2024-03-22T07:23:54;66.03;;;26.15;;
55993;SDS011;67425;52.126;20.638;2024-03-22T07:26:20;72.32;;;27.10;;
55993;SDS011;67425;52.126;20.638;2024-03-22T07:28:45;72.70;;;28.60;;
55993;SDS011;67425;52.126;20.638;2024-03-22T07:31:11;71.82;;;27.92;;
55993;SDS011;67425;52.126;20.638;2024-03-22T07:33:36;62.90;;;27.17;;
55993;SDS011;67425;52.126;20.638;2024-03-22T07:36:04;68.22;;;28.45;;
55993;SDS011;67425;52.126;20.638;2024-03-22T07:38:29;67.70;;;28.40;;
55993;SDS011;67425;52.126;20.638;2024-03-22T07:40:55;61.10;;;26.45;;
55993;SDS011;67425;52.126;20.638;2024-03-22T07:43:20;70.85;;;29.10;;
55993;SDS011;67425;52.126;20.638;2024-03-22T07:45:46;72.90;;;30.75;;
55993;SDS011;67425;52.126;20.638;2024-03-22T07:48:11;65.53;;;28.58;;
55993;SDS011;67425;52.126;20.638;2024-03-22T07:50:36;60.75;;;25.98;;
55993;SDS011;67425;52.126;20.638;2024-03-22T07:53:02;56.72;;;24.98;;
55993;SDS011;67425;52.126;20.638;2024-03-22T07:55:27;60.85;;;25.88;;
55993;SDS011;67425;52.126;20.638;2024-03-22T07:57:53;55.70;;;23.10;;
55993;SDS011;67425;52.126;20.638;2024-03-22T08:00:18;57.78;;;23.40;;
55993;SDS011;67425;52.126;20.638;2024-03-22T08:02:44;61.63;;;25.45;;
55993;SDS011;67425;52.126;20.638;2024-03-22T08:05:09;57.67;;;25.73;;
55993;SDS011;67425;52.126;20.638;2024-03-22T08:07:35;64.72;;;23.60;;
55993;SDS011;67425;52.126;20.638;2024-03-22T08:10:00;48.60;;;23.00;;
55993;SDS011;67425;52.126;20.638;2024-03-22T08:12:27;50.22;;;22.20;;
55993;SDS011;67425;52.126;20.638;2024-03-22T08:14:53;50.00;;;22.42;;
55993;SDS011;67425;52.126;20.638;2024-03-22T08:17:18;47.92;;;20.48;;
55993;SDS011;67425;52.126;20.638;2024-03-22T08:19:44;48.65;;;21.40;;
55993;SDS011;67425;52.126;20.638;2024-03-22T08:22:09;53.75;;;23.63;;
55993;SDS011;67425;52.126;20.638;2024-03-22T08:24:35;45.40;;;22.30;;
55993;SDS011;67425;52.126;20.638;2024-03-22T08:27:00;42.33;;;17.95;;
55993;SDS011;67425;52.126;20.638;2024-03-22T08:29:26;36.10;;;18.08;;
55993;SDS011;67425;52.126;20.638;2024-03-22T08:31:51;38.35;;;18.35;;
55993;SDS011;67425;52.126;20.638;2024-03-22T08:34:18;39.35;;;19.33;;
55993;SDS011;67425;52.126;20.638;2024-03-22T08:36:43;40.05;;;19.05;;
55993;SDS011;67425;52.126;20.638;2024-03-22T08:39:09;48.22;;;21.33;;
55993;SDS011;67425;52.126;20.638;2024-03-22T08:41:36;43.42;;;19.30;;
55993;SDS011;67425;52.126;20.638;2024-03-22T08:44:02;46.53;;;20.50;;
55993;SDS011;67425;52.126;20.638;2024-03-22T08:46:27;50.83;;;22.88;;
55993;SDS011;67425;52.126;20.638;2024-03-22T08:48:53;50.83;;;23.25;;
55993;SDS011;67425;52.126;20.638;2024-03-22T08:51:19;49.75;;;23.08;;
55993;SDS011;67425;52.126;20.638;2024-03-22T08:53:44;48.45;;;22.45;;
55993;SDS011;67425;52.126;20.638;2024-03-22T08:56:10;46.25;;;23.45;;
55993;SDS011;67425;52.126;20.638;2024-03-22T08:58:36;51.72;;;23.05;;
55993;SDS011;67425;52.126;20.638;2024-03-22T09:01:01;48.58;;;21.20;;
55993;SDS011;67425;52.126;20.638;2024-03-22T09:03:26;40.47;;;20.95;;
55993;SDS011;67425;52.126;20.638;2024-03-22T09:05:52;44.90;;;18.52;;
55993;SDS011;67425;52.126;20.638;2024-03-22T09:08:18;50.72;;;21.00;;
55993;SDS011;67425;52.126;20.638;2024-03-22T09:10:44;48.30;;;23.60;;
55993;SDS011;67425;52.126;20.638;2024-03-22T09:13:10;41.13;;;21.08;;
55993;SDS011;67425;52.126;20.638;2024-03-22T09:15:37;58.85;;;22.00;;
55993;SDS011;67425;52.126;20.638;2024-03-22T09:18:03;39.35;;;20.08;;
55993;SDS011;67425;52.126;20.638;2024-03-22T09:20:29;50.88;;;20.65;;
55993;SDS011;67425;52.126;20.638;2024-03-22T09:22:54;38.05;;;18.77;;
55993;SDS011;67425;52.126;20.638;2024-03-22T09:25:20;43.88;;;20.88;;
55993;SDS011;67425;52.126;20.638;2024-03-22T09:27:46;42.38;;;18.95;;
55993;SDS011;67425;52.126;20.638;2024-03-22T09:30:11;39.83;;;18.23;;
55993;SDS011;67425;52.126;20.638;2024-03-22T09:32:37;33.42;;;17.40;;
55993;SDS011;67425;52.126;20.638;2024-03-22T09:35:03;32.85;;;16.77;;
55993;SDS011;67425;52.126;20.638;2024-03-22T09:37:28;36.08;;;16.65;;
55993;SDS011;67425;52.126;20.638;2024-03-22T09:39:54;41.35;;;20.40;;
55993;SDS011;67425;52.126;20.638;2024-03-22T09:42:19;39.05;;;18.83;;
55993;SDS011;67425;52.126;20.638;2024-03-22T09:44:48;42.55;;;17.75;;
55993;SDS011;67425;52.126;20.638;2024-03-22T09:47:15;33.42;;;17.73;;
55993;SDS011;67425;52.126;20.638;2024-03-22T09:49:42;37.20;;;19.00;;
55993;SDS011;67425;52.126;20.638;2024-03-22T09:52:14;37.92;;;19.02;;
55993;SDS011;67425;52.126;20.638;2024-03-22T09:54:42;42.50;;;18.58;;
55993;SDS011;67425;52.126;20.638;2024-03-22T09:57:17;36.85;;;18.52;;
55993;SDS011;67425;52.126;20.638;2024-03-22T09:59:43;47.72;;;20.63;;
55993;SDS011;67425;52.126;20.638;2024-03-22T10:02:12;38.25;;;19.65;;
55993;SDS011;67425;52.126;20.638;2024-03-22T10:04:39;50.63;;;20.85;;
55993;SDS011;67425;52.126;20.638;2024-03-22T10:07:06;42.13;;;19.23;;
55993;SDS011;67425;52.126;20.638;2024-03-22T10:09:35;39.00;;;19.50;;
55993;SDS011;67425;52.126;20.638;2024-03-22T10:12:02;37.08;;;17.00;;
55993;SDS011;67425;52.126;20.638;2024-03-22T10:14:28;32.80;;;16.45;;
55993;SDS011;67425;52.126;20.638;2024-03-22T10:16:54;34.15;;;16.23;;
55993;SDS011;67425;52.126;20.638;2024-03-22T10:19:20;29.20;;;16.38;;
55993;SDS011;67425;52.126;20.638;2024-03-22T10:21:47;37.65;;;17.23;;
55993;SDS011;67425;52.126;20.638;2024-03-22T10:24:13;35.95;;;16.65;;
55993;SDS011;67425;52.126;20.638;2024-03-22T10:26:39;35.70;;;18.77;;
55993;SDS011;67425;52.126;20.638;2024-03-22T10:29:07;37.97;;;18.83;;
55993;SDS011;67425;52.126;20.638;2024-03-22T10:31:34;37.35;;;17.20;;
55993;SDS011;67425;52.126;20.638;2024-03-22T10:34:01;34.78;;;17.38;;
55993;SDS011;67425;52.126;20.638;2024-03-22T10:36:29;35.90;;;16.27;;
55993;SDS011;67425;52.126;20.638;2024-03-22T10:38:56;35.58;;;17.67;;
55993;SDS011;67425;52.126;20.638;2024-03-22T10:41:23;29.98;;;15.68;;
55993;SDS011;67425;52.126;20.638;2024-03-22T10:43:50;33.45;;;17.67;;
55993;SDS011;67425;52.126;20.638;2024-03-22T10:46:15;37.15;;;17.20;;
55993;SDS011;67425;52.126;20.638;2024-03-22T10:48:44;36.47;;;16.35;;
55993;SDS011;67425;52.126;20.638;2024-03-22T10:51:10;31.52;;;15.30;;
55993;SDS011;67425;52.126;20.638;2024-03-22T10:53:37;60.53;;;23.48;;
55993;SDS011;67425;52.126;20.638;2024-03-22T10:56:03;43.95;;;18.80;;
55993;SDS011;67425;52.126;20.638;2024-03-22T10:58:29;30.20;;;11.27;;
55993;SDS011;67425;52.126;20.638;2024-03-22T11:00:56;24.98;;;11.15;;
55993;SDS011;67425;52.126;20.638;2024-03-22T11:03:22;16.73;;;10.65;;
55993;SDS011;67425;52.126;20.638;2024-03-22T11:05:50;23.80;;;11.00;;
55993;SDS011;67425;52.126;20.638;2024-03-22T11:08:26;21.70;;;10.90;;
55993;SDS011;67425;52.126;20.638;2024-03-22T11:10:53;22.60;;;10.23;;
55993;SDS011;67425;52.126;20.638;2024-03-22T11:13:19;18.75;;;9.85;;
55993;SDS011;67425;52.126;20.638;2024-03-22T11:15:51;18.08;;;9.23;;
55993;SDS011;67425;52.126;20.638;2024-03-22T11:18:16;15.32;;;8.70;;
55993;SDS011;67425;52.126;20.638;2024-03-22T11:20:42;15.68;;;8.60;;
55993;SDS011;67425;52.126;20.638;2024-03-22T11:23:09;15.13;;;9.15;;
55993;SDS011;67425;52.126;20.638;2024-03-22T11:25:35;13.07;;;7.78;;
55993;SDS011;67425;52.126;20.638;2024-03-22T11:28:01;15.10;;;8.32;;
55993;SDS011;67425;52.126;20.638;2024-03-22T11:30:28;14.25;;;8.40;;
55993;SDS011;67425;52.126;20.638;2024-03-22T11:32:54;14.18;;;9.02;;
55993;SDS011;67425;52.126;20.638;2024-03-22T11:35:20;20.92;;;9.10;;
55993;SDS011;67425;52.126;20.638;2024-03-22T11:37:45;13.93;;;8.40;;
55993;SDS011;67425;52.126;20.638;2024-03-22T11:40:11;12.43;;;7.75;;
55993;SDS011;67425;52.126;20.638;2024-03-22T11:42:41;15.13;;;8.23;;
55993;SDS011;67425;52.126;20.638;2024-03-22T11:45:10;17.50;;;8.77;;
55993;SDS011;67425;52.126;20.638;2024-03-22T11:47:37;17.92;;;8.30;;
55993;SDS011;67425;52.126;20.638;2024-03-22T11:50:02;12.30;;;7.57;;
55993;SDS011;67425;52.126;20.638;2024-03-22T11:52:28;13.95;;;7.63;;
55993;SDS011;67425;52.126;20.638;2024-03-22T11:54:54;24.90;;;9.80;;
55993;SDS011;67425;52.126;20.638;2024-03-22T11:57:20;13.82;;;8.57;;
55993;SDS011;67425;52.126;20.638;2024-03-22T11:59:46;14.88;;;8.55;;
55993;SDS011;67425;52.126;20.638;2024-03-22T12:02:11;17.35;;;9.27;;
55993;SDS011;67425;52.126;20.638;2024-03-22T12:04:41;19.02;;;10.02;;
55993;SDS011;67425;52.126;20.638;2024-03-22T12:07:10;21.27;;;10.25;;
55993;SDS011;67425;52.126;20.638;2024-03-22T12:09:37;18.08;;;10.13;;
55993;SDS011;67425;52.126;20.638;2024-03-22T12:12:03;18.48;;;9.82;;
55993;SDS011;67425;52.126;20.638;2024-03-22T12:14:29;17.83;;;9.70;;
55993;SDS011;67425;52.126;20.638;2024-03-22T12:16:55;17.98;;;10.10;;
55993;SDS011;67425;52.126;20.638;2024-03-22T12:19:20;21.00;;;10.98;;
55993;SDS011;67425;52.126;20.638;2024-03-22T12:21:45;20.40;;;10.65;;
55993;SDS011;67425;52.126;20.638;2024-03-22T12:24:11;25.23;;;10.23;;
55993;SDS011;67425;52.126;20.638;2024-03-22T12:26:36;22.95;;;10.73;;
55993;SDS011;67425;52.126;20.638;2024-03-22T12:29:02;17.48;;;10.60;;
55993;SDS011;67425;52.126;20.638;2024-03-22T12:31:27;19.90;;;11.27;;
55993;SDS011;67425;52.126;20.638;2024-03-22T12:33:53;22.13;;;10.98;;
55993;SDS011;67425;52.126;20.638;2024-03-22T12:36:18;22.83;;;9.48;;
55993;SDS011;67425;52.126;20.638;2024-03-22T12:38:44;20.13;;;10.63;;
55993;SDS011;67425;52.126;20.638;2024-03-22T12:41:09;21.88;;;12.82;;
55993;SDS011;67425;52.126;20.638;2024-03-22T12:43:35;21.52;;;10.98;;
55993;SDS011;67425;52.126;20.638;2024-03-22T12:46:01;18.77;;;10.30;;
55993;SDS011;67425;52.126;20.638;2024-03-22T12:48:27;26.38;;;11.98;;
55993;SDS011;67425;52.126;20.638;2024-03-22T12:50:53;19.08;;;11.38;;
55993;SDS011;67425;52.126;20.638;2024-03-22T12:53:18;21.08;;;10.60;;
55993;SDS011;67425;52.126;20.638;2024-03-22T12:55:44;19.50;;;10.85;;
55993;SDS011;67425;52.126;20.638;2024-03-22T12:58:09;20.67;;;11.38;;
55993;SDS011;67425;52.126;20.638;2024-03-22T13:00:35;22.77;;;10.48;;
55993;SDS011;67425;52.126;20.638;2024-03-22T13:03:00;19.48;;;11.00;;
55993;SDS011;67425;52.126;20.638;2024-03-22T13:05:26;20.00;;;11.82;;
55993;SDS011;67425;52.126;20.638;2024-03-22T13:07:52;23.50;;;11.82;;
55993;SDS011;67425;52.126;20.638;2024-03-22T13:10:18;17.42;;;10.18;;
55993;SDS011;67425;52.126;20.638;2024-03-22T13:12:43;16.70;;;10.32;;
55993;SDS011;67425;52.126;20.638;2024-03-22T13:15:08;22.42;;;11.13;;
55993;SDS011;67425;52.126;20.638;2024-03-22T13:17:34;20.65;;;11.38;;
55993;SDS011;67425;52.126;20.638;2024-03-22T13:20:00;17.73;;;11.30;;
55993;SDS011;67425;52.126;20.638;2024-03-22T13:22:25;21.05;;;11.05;;
55993;SDS011;67425;52.126;20.638;2024-03-22T13:24:50;22.75;;;11.93;;
55993;SDS011;67425;52.126;20.638;2024-03-22T13:27:16;24.35;;;11.43;;
55993;SDS011;67425;52.126;20.638;2024-03-22T13:29:42;24.38;;;12.57;;
55993;SDS011;67425;52.126;20.638;2024-03-22T13:32:08;23.42;;;11.40;;
55993;SDS011;67425;52.126;20.638;2024-03-22T13:34:36;22.90;;;14.68;;
55993;SDS011;67425;52.126;20.638;2024-03-22T13:37:02;25.48;;;12.63;;
55993;SDS011;67425;52.126;20.638;2024-03-22T13:39:28;21.30;;;12.18;;
55993;SDS011;67425;52.126;20.638;2024-03-22T13:41:56;23.17;;;12.80;;
55993;SDS011;67425;52.126;20.638;2024-03-22T13:44:22;20.65;;;12.55;;
55993;SDS011;67425;52.126;20.638;2024-03-22T13:46:51;23.70;;;12.85;;
55993;SDS011;67425;52.126;20.638;2024-03-22T13:49:17;28.25;;;13.63;;
55993;SDS011;67425;52.126;20.638;2024-03-22T13:51:45;17.33;;;11.65;;
55993;SDS011;67425;52.126;20.638;2024-03-22T13:54:12;23.15;;;14.15;;
55993;SDS011;67425;52.126;20.638;2024-03-22T13:56:37;21.00;;;12.57;;
55993;SDS011;67425;52.126;20.638;2024-03-22T13:59:06;22.88;;;13.05;;
55993;SDS011;67425;52.126;20.638;2024-03-22T14:01:33;23.08;;;13.02;;